sensor_id;sensor_type;location;lat;lon;timestamp;P1;durP1;ratioP1;P2;durP2;ratioP2
55003;SDS011;40900;52.710;6.438;2022-09-29T00:00:49;8.13;;;6.32;;
55003;SDS011;40900;52.710;6.438;2022-09-29T00:03:16;8.82;;;6.15;;
55003;SDS011;40900;52.710;6.438;2022-09-29T00:05:46;6.90;;;5.95;;
55003;SDS011;40900;52.710;6.438;2022-09-29T00:08:16;8.65;;;5.90;;
55003;SDS011;40900;52.710;6.438;2022-09-29T00:10:43;9.07;;;6.55;;
55003;SDS011;40900;52.710;6.438;2022-09-29T00:13:10;7.15;;;6.45;;
55003;SDS011;40900;52.710;6.438;2022-09-29T00:15:36;7.45;;;5.97;;
55003;SDS011;40900;52.710;6.438;2022-09-29T00:18:01;7.00;;;6.30;;
55003;SDS011;40900;52.710;6.438;2022-09-29T00:20:28;7.35;;;6.03;;
55003;SDS011;40900;52.710;6.438;2022-09-29T00:22:54;7.53;;;6.78;;
55003;SDS011;40900;52.710;6.438;2022-09-29T00:25:20;8.98;;;7.18;;
55003;SDS011;40900;52.710;6.438;2022-09-29T00:27:46;8.10;;;6.18;;
55003;SDS011;40900;52.710;6.438;2022-09-29T00:30:12;7.78;;;6.50;;
55003;SDS011;40900;52.710;6.438;2022-09-29T00:32:38;8.23;;;6.63;;
55003;SDS011;40900;52.710;6.438;2022-09-29T00:35:04;10.20;;;6.15;;
55003;SDS011;40900;52.710;6.438;2022-09-29T00:37:32;8.32;;;6.80;;
55003;SDS011;40900;52.710;6.438;2022-09-29T00:39:58;7.90;;;7.10;;
55003;SDS011;40900;52.710;6.438;2022-09-29T00:42:24;7.22;;;6.38;;
55003;SDS011;40900;52.710;6.438;2022-09-29T00:45:11;9.40;;;6.30;;
55003;SDS011;40900;52.710;6.438;2022-09-29T00:47:44;7.15;;;6.45;;
55003;SDS011;40900;52.710;6.438;2022-09-29T00:50:17;9.55;;;6.28;;
55003;SDS011;40900;52.710;6.438;2022-09-29T00:52:52;8.23;;;6.30;;
55003;SDS011;40900;52.710;6.438;2022-09-29T00:55:25;6.40;;;5.80;;
55003;SDS011;40900;52.710;6.438;2022-09-29T00:58:07;7.25;;;6.50;;
55003;SDS011;40900;52.710;6.438;2022-09-29T01:00:41;7.68;;;6.18;;
55003;SDS011;40900;52.710;6.438;2022-09-29T01:03:08;6.53;;;5.93;;
55003;SDS011;40900;52.710;6.438;2022-09-29T01:05:44;6.40;;;5.80;;
55003;SDS011;40900;52.710;6.438;2022-09-29T01:08:19;7.05;;;6.35;;
55003;SDS011;40900;52.710;6.438;2022-09-29T01:10:49;7.20;;;6.50;;
55003;SDS011;40900;52.710;6.438;2022-09-29T01:13:16;7.68;;;6.97;;
55003;SDS011;40900;52.710;6.438;2022-09-29T01:15:43;8.80;;;7.03;;
55003;SDS011;40900;52.710;6.438;2022-09-29T01:18:09;8.43;;;6.45;;
55003;SDS011;40900;52.710;6.438;2022-09-29T01:20:37;7.78;;;6.53;;
55003;SDS011;40900;52.710;6.438;2022-09-29T01:31:30;6.85;;;5.97;;
55003;SDS011;40900;52.710;6.438;2022-09-29T01:37:35;8.57;;;6.90;;
55003;SDS011;40900;52.710;6.438;2022-09-29T01:42:53;7.90;;;7.05;;
55003;SDS011;40900;52.710;6.438;2022-09-29T01:45:33;8.85;;;7.30;;
55003;SDS011;40900;52.710;6.438;2022-09-29T01:48:06;8.43;;;7.30;;
55003;SDS011;40900;52.710;6.438;2022-09-29T01:50:39;8.25;;;7.10;;
55003;SDS011;40900;52.710;6.438;2022-09-29T01:53:13;9.07;;;6.85;;
55003;SDS011;40900;52.710;6.438;2022-09-29T01:55:44;8.55;;;7.20;;
55003;SDS011;40900;52.710;6.438;2022-09-29T01:58:18;7.22;;;6.50;;
55003;SDS011;40900;52.710;6.438;2022-09-29T02:00:50;11.37;;;6.90;;
55003;SDS011;40900;52.710;6.438;2022-09-29T02:05:58;7.85;;;6.75;;
55003;SDS011;40900;52.710;6.438;2022-09-29T02:11:07;7.38;;;6.68;;
55003;SDS011;40900;52.710;6.438;2022-09-29T02:13:40;7.60;;;6.90;;
55003;SDS011;40900;52.710;6.438;2022-09-29T02:16:14;8.50;;;6.55;;
55003;SDS011;40900;52.710;6.438;2022-09-29T02:18:53;7.80;;;7.00;;
55003;SDS011;40900;52.710;6.438;2022-09-29T02:21:41;7.13;;;6.43;;
55003;SDS011;40900;52.710;6.438;2022-09-29T02:24:08;9.02;;;6.97;;
55003;SDS011;40900;52.710;6.438;2022-09-29T02:26:34;8.02;;;7.22;;
55003;SDS011;40900;52.710;6.438;2022-09-29T02:29:01;8.48;;;7.57;;
55003;SDS011;40900;52.710;6.438;2022-09-29T02:31:28;8.60;;;6.63;;
55003;SDS011;40900;52.710;6.438;2022-09-29T02:33:56;8.27;;;6.93;;
55003;SDS011;40900;52.710;6.438;2022-09-29T02:36:31;10.38;;;7.20;;
55003;SDS011;40900;52.710;6.438;2022-09-29T02:42:28;6.60;;;5.97;;
55003;SDS011;40900;52.710;6.438;2022-09-29T02:56:34;21.13;;;5.65;;
55003;SDS011;40900;52.710;6.438;2022-09-29T02:59:25;7.32;;;5.25;;
55003;SDS011;40900;52.710;6.438;2022-09-29T03:01:55;28.48;;;4.90;;
55003;SDS011;40900;52.710;6.438;2022-09-29T03:04:23;31.23;;;4.78;;
55003;SDS011;40900;52.710;6.438;2022-09-29T03:06:50;43.80;;;5.45;;
55003;SDS011;40900;52.710;6.438;2022-09-29T03:09:17;111.05;;;6.93;;
55003;SDS011;40900;52.710;6.438;2022-09-29T03:11:43;115.30;;;6.63;;
55003;SDS011;40900;52.710;6.438;2022-09-29T03:14:08;148.15;;;7.40;;
55003;SDS011;40900;52.710;6.438;2022-09-29T03:16:34;72.53;;;5.75;;
55003;SDS011;40900;52.710;6.438;2022-09-29T03:19:01;84.82;;;6.78;;
55003;SDS011;40900;52.710;6.438;2022-09-29T03:21:29;59.22;;;5.00;;
55003;SDS011;40900;52.710;6.438;2022-09-29T03:23:55;67.30;;;5.68;;
55003;SDS011;40900;52.710;6.438;2022-09-29T03:26:21;75.55;;;5.65;;
55003;SDS011;40900;52.710;6.438;2022-09-29T03:28:48;56.55;;;4.90;;
55003;SDS011;40900;52.710;6.438;2022-09-29T03:31:15;69.20;;;5.00;;
55003;SDS011;40900;52.710;6.438;2022-09-29T03:33:41;35.63;;;4.50;;
55003;SDS011;40900;52.710;6.438;2022-09-29T03:36:07;31.30;;;4.72;;
55003;SDS011;40900;52.710;6.438;2022-09-29T03:38:35;39.65;;;4.70;;
55003;SDS011;40900;52.710;6.438;2022-09-29T03:41:02;44.72;;;4.82;;
55003;SDS011;40900;52.710;6.438;2022-09-29T03:43:28;51.45;;;5.20;;
55003;SDS011;40900;52.710;6.438;2022-09-29T03:45:54;60.03;;;5.28;;
55003;SDS011;40900;52.710;6.438;2022-09-29T03:48:20;44.35;;;5.22;;
55003;SDS011;40900;52.710;6.438;2022-09-29T03:50:48;38.53;;;5.70;;
55003;SDS011;40900;52.710;6.438;2022-09-29T03:53:15;35.78;;;5.00;;
55003;SDS011;40900;52.710;6.438;2022-09-29T03:55:45;26.98;;;4.75;;
55003;SDS011;40900;52.710;6.438;2022-09-29T03:58:11;31.92;;;4.88;;
55003;SDS011;40900;52.710;6.438;2022-09-29T04:00:37;28.35;;;4.50;;
55003;SDS011;40900;52.710;6.438;2022-09-29T04:03:03;25.20;;;4.88;;
55003;SDS011;40900;52.710;6.438;2022-09-29T04:05:29;28.75;;;4.40;;
55003;SDS011;40900;52.710;6.438;2022-09-29T04:07:55;28.65;;;5.43;;
55003;SDS011;40900;52.710;6.438;2022-09-29T04:10:21;44.90;;;5.15;;
55003;SDS011;40900;52.710;6.438;2022-09-29T04:12:46;36.40;;;5.05;;
55003;SDS011;40900;52.710;6.438;2022-09-29T04:15:12;47.53;;;6.22;;
55003;SDS011;40900;52.710;6.438;2022-09-29T04:17:38;63.47;;;5.97;;
55003;SDS011;40900;52.710;6.438;2022-09-29T04:20:04;55.17;;;6.10;;
55003;SDS011;40900;52.710;6.438;2022-09-29T04:22:31;37.80;;;5.60;;
55003;SDS011;40900;52.710;6.438;2022-09-29T04:24:56;71.07;;;6.47;;
55003;SDS011;40900;52.710;6.438;2022-09-29T04:27:22;28.02;;;5.40;;
55003;SDS011;40900;52.710;6.438;2022-09-29T04:29:48;33.95;;;5.68;;
55003;SDS011;40900;52.710;6.438;2022-09-29T04:32:14;7.03;;;5.07;;
55003;SDS011;40900;52.710;6.438;2022-09-29T04:34:39;5.78;;;5.15;;
55003;SDS011;40900;52.710;6.438;2022-09-29T04:37:06;12.32;;;5.30;;
55003;SDS011;40900;52.710;6.438;2022-09-29T04:39:35;5.75;;;5.15;;
55003;SDS011;40900;52.710;6.438;2022-09-29T04:42:01;5.70;;;5.20;;
55003;SDS011;40900;52.710;6.438;2022-09-29T04:44:27;11.25;;;5.68;;
55003;SDS011;40900;52.710;6.438;2022-09-29T04:46:53;13.80;;;5.63;;
55003;SDS011;40900;52.710;6.438;2022-09-29T04:49:18;40.85;;;6.13;;
55003;SDS011;40900;52.710;6.438;2022-09-29T04:51:44;26.48;;;6.32;;
55003;SDS011;40900;52.710;6.438;2022-09-29T04:54:11;27.42;;;6.07;;
55003;SDS011;40900;52.710;6.438;2022-09-29T04:56:36;31.25;;;6.57;;
55003;SDS011;40900;52.710;6.438;2022-09-29T04:59:02;39.72;;;7.63;;
55003;SDS011;40900;52.710;6.438;2022-09-29T05:01:28;21.70;;;7.45;;
55003;SDS011;40900;52.710;6.438;2022-09-29T05:03:54;22.23;;;7.50;;
55003;SDS011;40900;52.710;6.438;2022-09-29T05:06:20;18.80;;;7.20;;
55003;SDS011;40900;52.710;6.438;2022-09-29T05:08:46;23.33;;;7.35;;
55003;SDS011;40900;52.710;6.438;2022-09-29T05:11:11;39.20;;;7.00;;
55003;SDS011;40900;52.710;6.438;2022-09-29T05:13:37;15.43;;;7.15;;
55003;SDS011;40900;52.710;6.438;2022-09-29T05:16:03;9.48;;;6.72;;
55003;SDS011;40900;52.710;6.438;2022-09-29T05:18:29;7.38;;;6.63;;
55003;SDS011;40900;52.710;6.438;2022-09-29T05:20:55;16.88;;;5.97;;
55003;SDS011;40900;52.710;6.438;2022-09-29T05:23:26;31.98;;;5.85;;
55003;SDS011;40900;52.710;6.438;2022-09-29T05:25:52;18.15;;;8.93;;
55003;SDS011;40900;52.710;6.438;2022-09-29T05:28:18;18.88;;;5.47;;
55003;SDS011;40900;52.710;6.438;2022-09-29T05:30:44;6.65;;;5.35;;
55003;SDS011;40900;52.710;6.438;2022-09-29T05:33:09;18.25;;;6.13;;
55003;SDS011;40900;52.710;6.438;2022-09-29T05:35:35;6.95;;;6.10;;
55003;SDS011;40900;52.710;6.438;2022-09-29T05:38:01;29.05;;;6.63;;
55003;SDS011;40900;52.710;6.438;2022-09-29T05:40:26;23.75;;;6.53;;
55003;SDS011;40900;52.710;6.438;2022-09-29T05:42:52;32.47;;;6.85;;
55003;SDS011;40900;52.710;6.438;2022-09-29T05:45:18;19.52;;;6.43;;
55003;SDS011;40900;52.710;6.438;2022-09-29T05:47:44;23.60;;;6.70;;
55003;SDS011;40900;52.710;6.438;2022-09-29T05:50:10;21.92;;;6.78;;
55003;SDS011;40900;52.710;6.438;2022-09-29T05:52:36;20.42;;;6.80;;
55003;SDS011;40900;52.710;6.438;2022-09-29T05:55:03;21.70;;;6.25;;
55003;SDS011;40900;52.710;6.438;2022-09-29T05:57:29;15.63;;;6.35;;
55003;SDS011;40900;52.710;6.438;2022-09-29T05:59:55;24.88;;;7.47;;
55003;SDS011;40900;52.710;6.438;2022-09-29T06:02:21;16.55;;;7.00;;
55003;SDS011;40900;52.710;6.438;2022-09-29T06:04:47;31.38;;;7.03;;
55003;SDS011;40900;52.710;6.438;2022-09-29T06:07:13;35.75;;;7.20;;
55003;SDS011;40900;52.710;6.438;2022-09-29T06:09:39;40.08;;;7.30;;
55003;SDS011;40900;52.710;6.438;2022-09-29T06:12:05;28.00;;;7.47;;
55003;SDS011;40900;52.710;6.438;2022-09-29T06:14:31;26.50;;;7.75;;
55003;SDS011;40900;52.710;6.438;2022-09-29T06:16:56;38.42;;;8.23;;
55003;SDS011;40900;52.710;6.438;2022-09-29T06:19:22;21.95;;;7.70;;
55003;SDS011;40900;52.710;6.438;2022-09-29T06:21:48;30.05;;;8.13;;
55003;SDS011;40900;52.710;6.438;2022-09-29T06:24:13;19.65;;;8.23;;
55003;SDS011;40900;52.710;6.438;2022-09-29T06:26:39;33.47;;;10.18;;
55003;SDS011;40900;52.710;6.438;2022-09-29T06:29:05;26.52;;;8.73;;
55003;SDS011;40900;52.710;6.438;2022-09-29T06:31:31;17.02;;;9.77;;
55003;SDS011;40900;52.710;6.438;2022-09-29T06:33:57;22.75;;;10.95;;
55003;SDS011;40900;52.710;6.438;2022-09-29T06:36:32;23.90;;;9.82;;
55003;SDS011;40900;52.710;6.438;2022-09-29T06:39:17;22.45;;;9.13;;
55003;SDS011;40900;52.710;6.438;2022-09-29T06:41:43;23.90;;;9.75;;
55003;SDS011;40900;52.710;6.438;2022-09-29T06:44:20;30.52;;;9.57;;
55003;SDS011;40900;52.710;6.438;2022-09-29T06:46:50;20.83;;;9.40;;
55003;SDS011;40900;52.710;6.438;2022-09-29T06:49:18;19.65;;;10.82;;
55003;SDS011;40900;52.710;6.438;2022-09-29T06:51:45;28.98;;;11.82;;
55003;SDS011;40900;52.710;6.438;2022-09-29T06:54:11;34.30;;;12.38;;
55003;SDS011;40900;52.710;6.438;2022-09-29T06:56:49;23.65;;;11.13;;
55003;SDS011;40900;52.710;6.438;2022-09-29T06:59:16;20.20;;;11.50;;
55003;SDS011;40900;52.710;6.438;2022-09-29T07:01:42;48.22;;;10.80;;
55003;SDS011;40900;52.710;6.438;2022-09-29T07:04:08;44.55;;;11.38;;
55003;SDS011;40900;52.710;6.438;2022-09-29T07:06:34;17.35;;;11.90;;
55003;SDS011;40900;52.710;6.438;2022-09-29T07:09:00;30.05;;;12.52;;
55003;SDS011;40900;52.710;6.438;2022-09-29T07:11:26;14.65;;;11.75;;
55003;SDS011;40900;52.710;6.438;2022-09-29T07:13:53;18.33;;;11.32;;
55003;SDS011;40900;52.710;6.438;2022-09-29T07:16:18;24.02;;;11.05;;
55003;SDS011;40900;52.710;6.438;2022-09-29T07:18:47;17.27;;;10.32;;
55003;SDS011;40900;52.710;6.438;2022-09-29T07:21:14;11.57;;;10.20;;
55003;SDS011;40900;52.710;6.438;2022-09-29T07:23:43;17.67;;;10.48;;
55003;SDS011;40900;52.710;6.438;2022-09-29T07:26:09;16.85;;;10.48;;
55003;SDS011;40900;52.710;6.438;2022-09-29T07:28:36;23.00;;;10.18;;
55003;SDS011;40900;52.710;6.438;2022-09-29T07:31:13;19.80;;;9.93;;
55003;SDS011;40900;52.710;6.438;2022-09-29T07:33:41;30.20;;;10.43;;
55003;SDS011;40900;52.710;6.438;2022-09-29T07:36:08;38.60;;;10.27;;
55003;SDS011;40900;52.710;6.438;2022-09-29T07:38:33;24.38;;;10.07;;
55003;SDS011;40900;52.710;6.438;2022-09-29T07:41:00;29.48;;;10.23;;
55003;SDS011;40900;52.710;6.438;2022-09-29T07:43:30;13.50;;;9.95;;
55003;SDS011;40900;52.710;6.438;2022-09-29T07:45:56;10.25;;;9.30;;
55003;SDS011;40900;52.710;6.438;2022-09-29T07:48:24;15.85;;;9.90;;
55003;SDS011;40900;52.710;6.438;2022-09-29T07:50:51;13.95;;;9.68;;
55003;SDS011;40900;52.710;6.438;2022-09-29T07:53:17;11.90;;;9.27;;
55003;SDS011;40900;52.710;6.438;2022-09-29T07:55:43;11.32;;;10.23;;
55003;SDS011;40900;52.710;6.438;2022-09-29T07:58:08;9.73;;;8.45;;
55003;SDS011;40900;52.710;6.438;2022-09-29T08:00:34;11.05;;;8.93;;
55003;SDS011;40900;52.710;6.438;2022-09-29T08:03:01;9.90;;;8.90;;
55003;SDS011;40900;52.710;6.438;2022-09-29T08:05:28;8.63;;;7.82;;
55003;SDS011;40900;52.710;6.438;2022-09-29T08:07:57;9.93;;;8.93;;
55003;SDS011;40900;52.710;6.438;2022-09-29T08:10:32;9.00;;;8.20;;
55003;SDS011;40900;52.710;6.438;2022-09-29T08:12:58;9.18;;;8.27;;
55003;SDS011;40900;52.710;6.438;2022-09-29T08:15:24;8.82;;;8.02;;
55003;SDS011;40900;52.710;6.438;2022-09-29T08:17:53;9.65;;;8.63;;
55003;SDS011;40900;52.710;6.438;2022-09-29T08:20:23;8.85;;;7.85;;
55003;SDS011;40900;52.710;6.438;2022-09-29T08:22:50;6.97;;;6.38;;
55003;SDS011;40900;52.710;6.438;2022-09-29T08:25:17;7.47;;;6.68;;
55003;SDS011;40900;52.710;6.438;2022-09-29T08:27:43;6.50;;;5.95;;
55003;SDS011;40900;52.710;6.438;2022-09-29T08:30:09;6.50;;;5.90;;
55003;SDS011;40900;52.710;6.438;2022-09-29T08:32:36;6.18;;;5.63;;
55003;SDS011;40900;52.710;6.438;2022-09-29T08:35:02;6.68;;;5.85;;
55003;SDS011;40900;52.710;6.438;2022-09-29T08:37:28;6.20;;;5.60;;
55003;SDS011;40900;52.710;6.438;2022-09-29T08:39:55;5.32;;;4.82;;
55003;SDS011;40900;52.710;6.438;2022-09-29T08:44:55;5.15;;;4.65;;
55003;SDS011;40900;52.710;6.438;2022-09-29T08:47:33;5.55;;;5.05;;
55003;SDS011;40900;52.710;6.438;2022-09-29T08:50:13;5.43;;;4.93;;
55003;SDS011;40900;52.710;6.438;2022-09-29T08:52:52;6.00;;;5.25;;
55003;SDS011;40900;52.710;6.438;2022-09-29T08:55:22;5.47;;;4.97;;
55003;SDS011;40900;52.710;6.438;2022-09-29T08:57:57;6.40;;;5.40;;
55003;SDS011;40900;52.710;6.438;2022-09-29T09:00:29;6.53;;;5.22;;
55003;SDS011;40900;52.710;6.438;2022-09-29T09:09:09;6.88;;;5.45;;
55003;SDS011;40900;52.710;6.438;2022-09-29T09:12:02;5.80;;;5.30;;
55003;SDS011;40900;52.710;6.438;2022-09-29T09:22:23;5.13;;;4.57;;
55003;SDS011;40900;52.710;6.438;2022-09-29T09:27:23;5.55;;;4.22;;
55003;SDS011;40900;52.710;6.438;2022-09-29T09:29:57;6.18;;;4.38;;
55003;SDS011;40900;52.710;6.438;2022-09-29T09:32:53;4.50;;;4.10;;
55003;SDS011;40900;52.710;6.438;2022-09-29T09:37:56;5.45;;;4.20;;
55003;SDS011;40900;52.710;6.438;2022-09-29T09:40:27;4.90;;;4.40;;
55003;SDS011;40900;52.710;6.438;2022-09-29T09:43:04;7.70;;;4.20;;
55003;SDS011;40900;52.710;6.438;2022-09-29T09:48:06;3.75;;;3.45;;
55003;SDS011;40900;52.710;6.438;2022-09-29T09:50:41;4.00;;;3.60;;
55003;SDS011;40900;52.710;6.438;2022-09-29T09:56:32;5.38;;;3.67;;
55003;SDS011;40900;52.710;6.438;2022-09-29T10:02:02;7.72;;;3.67;;
55003;SDS011;40900;52.710;6.438;2022-09-29T10:04:28;5.68;;;3.60;;
55003;SDS011;40900;52.710;6.438;2022-09-29T10:06:54;4.07;;;3.28;;
55003;SDS011;40900;52.710;6.438;2022-09-29T10:09:20;6.38;;;3.80;;
55003;SDS011;40900;52.710;6.438;2022-09-29T10:11:46;3.97;;;3.53;;
55003;SDS011;40900;52.710;6.438;2022-09-29T10:14:20;3.55;;;2.90;;
55003;SDS011;40900;52.710;6.438;2022-09-29T10:16:53;3.78;;;3.10;;
55003;SDS011;40900;52.710;6.438;2022-09-29T10:22:17;4.07;;;3.08;;
55003;SDS011;40900;52.710;6.438;2022-09-29T10:24:44;3.95;;;3.42;;
55003;SDS011;40900;52.710;6.438;2022-09-29T10:27:09;3.72;;;3.20;;
55003;SDS011;40900;52.710;6.438;2022-09-29T10:29:41;4.30;;;2.83;;
55003;SDS011;40900;52.710;6.438;2022-09-29T10:32:31;5.88;;;3.60;;
55003;SDS011;40900;52.710;6.438;2022-09-29T10:35:03;3.42;;;3.05;;
55003;SDS011;40900;52.710;6.438;2022-09-29T10:37:46;3.85;;;2.78;;
55003;SDS011;40900;52.710;6.438;2022-09-29T10:40:17;4.28;;;2.95;;
55003;SDS011;40900;52.710;6.438;2022-09-29T10:42:48;6.70;;;3.78;;
55003;SDS011;40900;52.710;6.438;2022-09-29T10:45:22;4.20;;;3.28;;
55003;SDS011;40900;52.710;6.438;2022-09-29T10:50:33;4.00;;;3.60;;
55003;SDS011;40900;52.710;6.438;2022-09-29T10:56:00;4.82;;;3.75;;
55003;SDS011;40900;52.710;6.438;2022-09-29T10:58:35;6.20;;;4.13;;
55003;SDS011;40900;52.710;6.438;2022-09-29T11:01:09;8.65;;;4.55;;
55003;SDS011;40900;52.710;6.438;2022-09-29T11:03:37;7.25;;;4.68;;
55003;SDS011;40900;52.710;6.438;2022-09-29T11:06:10;5.43;;;4.70;;
55003;SDS011;40900;52.710;6.438;2022-09-29T11:14:04;5.68;;;5.07;;
55003;SDS011;40900;52.710;6.438;2022-09-29T11:16:54;7.05;;;6.05;;
55003;SDS011;40900;52.710;6.438;2022-09-29T11:19:22;6.78;;;5.97;;
55003;SDS011;40900;52.710;6.438;2022-09-29T11:24:57;6.55;;;5.68;;
55003;SDS011;40900;52.710;6.438;2022-09-29T11:27:40;8.68;;;6.22;;
55003;SDS011;40900;52.710;6.438;2022-09-29T11:44:35;6.78;;;5.40;;
55003;SDS011;40900;52.710;6.438;2022-09-29T11:49:57;7.20;;;6.43;;
55003;SDS011;40900;52.710;6.438;2022-09-29T11:56:27;10.55;;;7.68;;
55003;SDS011;40900;52.710;6.438;2022-09-29T12:04:02;8.75;;;5.68;;
55003;SDS011;40900;52.710;6.438;2022-09-29T12:06:56;5.47;;;4.88;;
55003;SDS011;40900;52.710;6.438;2022-09-29T12:17:49;5.55;;;5.05;;
55003;SDS011;40900;52.710;6.438;2022-09-29T12:20:21;7.32;;;5.22;;
55003;SDS011;40900;52.710;6.438;2022-09-29T12:23:00;4.70;;;3.65;;
55003;SDS011;40900;52.710;6.438;2022-09-29T12:25:30;5.05;;;3.75;;
55003;SDS011;40900;52.710;6.438;2022-09-29T12:28:10;4.65;;;3.25;;
55003;SDS011;40900;52.710;6.438;2022-09-29T12:30:46;5.28;;;3.58;;
55003;SDS011;40900;52.710;6.438;2022-09-29T12:33:18;4.30;;;3.20;;
55003;SDS011;40900;52.710;6.438;2022-09-29T12:36:14;5.25;;;4.47;;
55003;SDS011;40900;52.710;6.438;2022-09-29T12:44:30;4.65;;;3.65;;
55003;SDS011;40900;52.710;6.438;2022-09-29T12:47:14;6.10;;;3.40;;
55003;SDS011;40900;52.710;6.438;2022-09-29T12:52:39;5.07;;;3.87;;
55003;SDS011;40900;52.710;6.438;2022-09-29T12:56:08;3.28;;;2.20;;
55003;SDS011;40900;52.710;6.438;2022-09-29T12:58:27;2.75;;;2.33;;
55003;SDS011;40900;52.710;6.438;2022-09-29T13:01:19;4.18;;;3.30;;
55003;SDS011;40900;52.710;6.438;2022-09-29T13:12:27;4.68;;;3.20;;
55003;SDS011;40900;52.710;6.438;2022-09-29T13:15:18;4.82;;;2.92;;
55003;SDS011;40900;52.710;6.438;2022-09-29T13:25:59;3.00;;;2.70;;
55003;SDS011;40900;52.710;6.438;2022-09-29T13:28:46;4.47;;;3.00;;
55003;SDS011;40900;52.710;6.438;2022-09-29T13:31:17;5.78;;;3.47;;
55003;SDS011;40900;52.710;6.438;2022-09-29T13:34:04;4.82;;;2.97;;
55003;SDS011;40900;52.710;6.438;2022-09-29T13:36:31;3.38;;;2.70;;
55003;SDS011;40900;52.710;6.438;2022-09-29T13:39:03;2.75;;;2.10;;
55003;SDS011;40900;52.710;6.438;2022-09-29T13:41:44;3.30;;;2.53;;
55003;SDS011;40900;52.710;6.438;2022-09-29T13:46:42;3.28;;;2.60;;
55003;SDS011;40900;52.710;6.438;2022-09-29T13:51:52;3.92;;;2.70;;
55003;SDS011;40900;52.710;6.438;2022-09-29T13:54:26;2.92;;;2.30;;
55003;SDS011;40900;52.710;6.438;2022-09-29T13:59:24;6.20;;;3.50;;
55003;SDS011;40900;52.710;6.438;2022-09-29T14:01:51;4.10;;;2.42;;
55003;SDS011;40900;52.710;6.438;2022-09-29T14:04:39;3.53;;;2.60;;
55003;SDS011;40900;52.710;6.438;2022-09-29T14:07:12;3.13;;;2.08;;
55003;SDS011;40900;52.710;6.438;2022-09-29T14:10:02;2.83;;;1.80;;
55003;SDS011;40900;52.710;6.438;2022-09-29T14:15:45;4.50;;;2.05;;
55003;SDS011;40900;52.710;6.438;2022-09-29T14:18:36;4.15;;;1.90;;
55003;SDS011;40900;52.710;6.438;2022-09-29T14:30:17;2.83;;;1.63;;
55003;SDS011;40900;52.710;6.438;2022-09-29T14:40:25;3.03;;;1.50;;
55003;SDS011;40900;52.710;6.438;2022-09-29T14:51:42;3.10;;;1.90;;
55003;SDS011;40900;52.710;6.438;2022-09-29T15:01:33;3.83;;;1.92;;
55003;SDS011;40900;52.710;6.438;2022-09-29T15:03:31;3.13;;;2.30;;
55003;SDS011;40900;52.710;6.438;2022-09-29T15:06:03;4.05;;;2.30;;
55003;SDS011;40900;52.710;6.438;2022-09-29T15:08:41;3.38;;;2.00;;
55003;SDS011;40900;52.710;6.438;2022-09-29T15:11:26;4.30;;;2.00;;
55003;SDS011;40900;52.710;6.438;2022-09-29T15:13:58;4.25;;;1.77;;
55003;SDS011;40900;52.710;6.438;2022-09-29T15:16:26;2.35;;;1.85;;
55003;SDS011;40900;52.710;6.438;2022-09-29T15:19:10;3.15;;;2.00;;
55003;SDS011;40900;52.710;6.438;2022-09-29T15:21:50;2.88;;;1.75;;
55003;SDS011;40900;52.710;6.438;2022-09-29T15:27:19;3.78;;;2.13;;
55003;SDS011;40900;52.710;6.438;2022-09-29T15:29:45;3.42;;;2.05;;
55003;SDS011;40900;52.710;6.438;2022-09-29T15:32:19;4.07;;;2.08;;
55003;SDS011;40900;52.710;6.438;2022-09-29T15:37:14;3.33;;;2.78;;
55003;SDS011;40900;52.710;6.438;2022-09-29T15:39:43;3.35;;;2.25;;
55003;SDS011;40900;52.710;6.438;2022-09-29T15:42:21;3.45;;;2.40;;
55003;SDS011;40900;52.710;6.438;2022-09-29T15:45:01;3.05;;;2.13;;
55003;SDS011;40900;52.710;6.438;2022-09-29T15:47:35;3.00;;;2.13;;
55003;SDS011;40900;52.710;6.438;2022-09-29T15:50:26;3.10;;;2.17;;
55003;SDS011;40900;52.710;6.438;2022-09-29T15:52:50;3.72;;;2.30;;
55003;SDS011;40900;52.710;6.438;2022-09-29T15:55:17;2.60;;;2.10;;
55003;SDS011;40900;52.710;6.438;2022-09-29T15:57:46;3.90;;;2.28;;
55003;SDS011;40900;52.710;6.438;2022-09-29T16:05:25;3.20;;;1.80;;
55003;SDS011;40900;52.710;6.438;2022-09-29T16:08:00;2.72;;;1.83;;
55003;SDS011;40900;52.710;6.438;2022-09-29T16:10:31;2.85;;;2.00;;
55003;SDS011;40900;52.710;6.438;2022-09-29T16:13:05;3.10;;;2.10;;
55003;SDS011;40900;52.710;6.438;2022-09-29T16:15:44;3.85;;;1.88;;
55003;SDS011;40900;52.710;6.438;2022-09-29T16:18:15;2.63;;;1.80;;
55003;SDS011;40900;52.710;6.438;2022-09-29T16:21:10;4.63;;;1.58;;
55003;SDS011;40900;52.710;6.438;2022-09-29T16:29:01;4.22;;;1.83;;
55003;SDS011;40900;52.710;6.438;2022-09-29T16:31:27;3.30;;;2.20;;
55003;SDS011;40900;52.710;6.438;2022-09-29T16:33:55;3.60;;;1.83;;
55003;SDS011;40900;52.710;6.438;2022-09-29T16:36:32;2.58;;;2.00;;
55003;SDS011;40900;52.710;6.438;2022-09-29T16:39:04;2.45;;;1.60;;
55003;SDS011;40900;52.710;6.438;2022-09-29T16:41:37;2.35;;;1.55;;
55003;SDS011;40900;52.710;6.438;2022-09-29T16:49:11;3.33;;;1.20;;
55003;SDS011;40900;52.710;6.438;2022-09-29T16:51:41;2.53;;;1.35;;
55003;SDS011;40900;52.710;6.438;2022-09-29T16:54:19;3.72;;;1.38;;
55003;SDS011;40900;52.710;6.438;2022-09-29T16:57:08;2.25;;;1.30;;
55003;SDS011;40900;52.710;6.438;2022-09-29T16:59:34;2.38;;;1.35;;
55003;SDS011;40900;52.710;6.438;2022-09-29T17:02:00;3.28;;;1.83;;
55003;SDS011;40900;52.710;6.438;2022-09-29T17:04:26;2.78;;;1.60;;
55003;SDS011;40900;52.710;6.438;2022-09-29T17:06:51;3.00;;;1.50;;
55003;SDS011;40900;52.710;6.438;2022-09-29T17:09:18;2.53;;;1.58;;
55003;SDS011;40900;52.710;6.438;2022-09-29T17:11:47;2.67;;;1.60;;
55003;SDS011;40900;52.710;6.438;2022-09-29T17:14:13;3.45;;;1.70;;
55003;SDS011;40900;52.710;6.438;2022-09-29T17:16:41;2.53;;;1.65;;
55003;SDS011;40900;52.710;6.438;2022-09-29T17:19:08;1.98;;;1.40;;
55003;SDS011;40900;52.710;6.438;2022-09-29T17:21:34;2.80;;;1.63;;
55003;SDS011;40900;52.710;6.438;2022-09-29T17:24:00;3.28;;;1.48;;
55003;SDS011;40900;52.710;6.438;2022-09-29T17:26:30;3.35;;;1.52;;
55003;SDS011;40900;52.710;6.438;2022-09-29T17:29:25;4.38;;;1.55;;
55003;SDS011;40900;52.710;6.438;2022-09-29T17:31:51;2.20;;;1.70;;
55003;SDS011;40900;52.710;6.438;2022-09-29T17:34:16;1.77;;;1.40;;
55003;SDS011;40900;52.710;6.438;2022-09-29T17:36:50;2.70;;;1.90;;
55003;SDS011;40900;52.710;6.438;2022-09-29T17:39:16;4.55;;;1.45;;
55003;SDS011;40900;52.710;6.438;2022-09-29T17:41:42;2.03;;;1.60;;
55003;SDS011;40900;52.710;6.438;2022-09-29T17:44:08;3.13;;;2.17;;
55003;SDS011;40900;52.710;6.438;2022-09-29T17:46:36;4.60;;;2.10;;
55003;SDS011;40900;52.710;6.438;2022-09-29T17:49:02;3.42;;;1.48;;
55003;SDS011;40900;52.710;6.438;2022-09-29T17:51:28;2.88;;;1.50;;
55003;SDS011;40900;52.710;6.438;2022-09-29T17:53:54;2.53;;;1.73;;
55003;SDS011;40900;52.710;6.438;2022-09-29T17:56:22;2.53;;;1.70;;
55003;SDS011;40900;52.710;6.438;2022-09-29T17:58:52;3.60;;;1.55;;
55003;SDS011;40900;52.710;6.438;2022-09-29T18:01:19;3.45;;;1.70;;
55003;SDS011;40900;52.710;6.438;2022-09-29T18:03:47;2.65;;;1.50;;
55003;SDS011;40900;52.710;6.438;2022-09-29T18:06:19;2.20;;;1.75;;
55003;SDS011;40900;52.710;6.438;2022-09-29T18:08:46;2.30;;;1.70;;
55003;SDS011;40900;52.710;6.438;2022-09-29T18:11:15;3.25;;;1.80;;
55003;SDS011;40900;52.710;6.438;2022-09-29T18:13:42;3.28;;;1.80;;
55003;SDS011;40900;52.710;6.438;2022-09-29T18:16:12;3.92;;;1.58;;
55003;SDS011;40900;52.710;6.438;2022-09-29T18:18:43;2.92;;;1.55;;
55003;SDS011;40900;52.710;6.438;2022-09-29T18:21:09;1.88;;;1.48;;
55003;SDS011;40900;52.710;6.438;2022-09-29T18:23:35;3.25;;;1.55;;
55003;SDS011;40900;52.710;6.438;2022-09-29T18:26:03;3.05;;;1.90;;
55003;SDS011;40900;52.710;6.438;2022-09-29T18:28:30;3.35;;;1.77;;